createdAt,value
2019-03-20T00:00:52.426Z,64.92
2019-03-20T00:01:52.410Z,65.23
2019-03-20T00:02:52.401Z,65.75
2019-03-20T00:03:52.402Z,65.33
2019-03-20T00:04:52.379Z,65.75
2019-03-20T00:05:52.367Z,65.44
2019-03-20T00:06:52.359Z,65.26
2019-03-20T00:07:52.349Z,65.54
2019-03-20T00:08:52.346Z,65.12
2019-03-20T00:09:52.326Z,65.12
2019-03-20T00:10:52.331Z,65.33
2019-03-20T00:11:52.305Z,65.02
2019-03-20T00:12:52.295Z,64.84
2019-03-20T00:13:52.293Z,64.74
2019-03-20T00:14:52.274Z,64.81
2019-03-20T00:15:52.264Z,64.71
2019-03-20T00:16:52.251Z,65.12
2019-03-20T00:17:52.241Z,65.44
2019-03-20T00:18:52.237Z,64.71
2019-03-20T00:19:52.225Z,65.26
2019-03-20T00:20:52.210Z,65.67
2019-03-20T00:21:52.199Z,65.78
2019-03-20T00:22:52.191Z,65.26
2019-03-20T00:23:52.186Z,64.84
2019-03-20T00:24:52.170Z,65.05
2019-03-20T00:25:52.153Z,64.95
2019-03-20T00:26:52.148Z,64.84
2019-03-20T00:27:52.133Z,65.67
2019-03-20T00:28:52.137Z,65.78
2019-03-20T00:29:52.113Z,65.78
2019-03-20T00:30:52.101Z,65.36
2019-03-20T00:31:52.093Z,65.78
2019-03-20T00:32:52.080Z,65.47
2019-03-20T00:33:52.078Z,65.57
2019-03-20T00:35:00.537Z,65.47
2019-03-20T00:35:53.049Z,65.50
2019-03-20T00:36:52.037Z,65.57
2019-03-20T00:37:52.026Z,65.78
2019-03-20T00:38:52.028Z,65.70
2019-03-20T00:39:52.017Z,65.57
2019-03-20T00:40:51.994Z,65.67
2019-03-20T00:41:51.984Z,66.29
2019-03-20T00:42:51.972Z,65.26
2019-03-20T00:43:51.972Z,65.99
2019-03-20T00:44:51.951Z,65.88
2019-03-20T00:45:51.947Z,65.91
2019-03-20T00:46:51.931Z,66.09
2019-03-20T00:47:51.923Z,65.91
2019-03-20T00:48:51.917Z,65.70
2019-03-20T00:49:51.898Z,66.19
2019-03-20T00:50:51.890Z,66.42
2019-03-20T00:51:51.877Z,66.32
2019-03-20T00:52:51.870Z,65.70
2019-03-20T00:53:51.867Z,65.81
2019-03-20T00:54:51.850Z,66.02
2019-03-20T00:55:51.838Z,66.02
2019-03-20T00:56:51.824Z,66.32
2019-03-20T00:57:51.814Z,66.12
2019-03-20T00:58:51.826Z,66.02
2019-03-20T00:59:51.798Z,66.42
2019-03-20T01:00:51.782Z,66.32
2019-03-20T01:01:51.780Z,66.02
2019-03-20T01:02:51.769Z,65.50
2019-03-20T01:03:51.759Z,65.39
2019-03-20T01:04:51.738Z,65.50
2019-03-20T01:05:51.732Z,65.19
2019-03-20T01:06:51.723Z,66.02
2019-03-20T01:07:51.712Z,65.91
2019-03-20T01:08:51.705Z,66.12
2019-03-20T01:09:51.687Z,65.60
2019-03-20T01:10:51.684Z,65.60
2019-03-20T01:11:51.665Z,65.91
2019-03-20T01:12:51.662Z,65.91
2019-03-20T01:13:51.680Z,66.02
2019-03-20T01:14:51.636Z,66.02
2019-03-20T01:15:51.626Z,65.70
2019-03-20T01:16:51.639Z,66.22
2019-03-20T01:17:51.602Z,65.29
2019-03-20T01:18:51.591Z,65.29
2019-03-20T01:19:51.589Z,65.91
2019-03-20T01:20:51.570Z,66.22
2019-03-20T01:21:51.559Z,65.91
2019-03-20T01:22:51.551Z,66.22
2019-03-20T01:23:51.535Z,66.22
2019-03-20T01:24:51.540Z,66.02
2019-03-20T01:25:51.518Z,67.05
2019-03-20T01:26:51.506Z,68.29
2019-03-20T01:27:51.518Z,68.94
2019-03-20T01:28:51.484Z,68.32
2019-03-20T01:29:51.484Z,68.32
2019-03-20T01:30:51.461Z,68.19
2019-03-20T01:31:51.450Z,68.40
2019-03-20T01:32:51.442Z,68.32
2019-03-20T01:33:51.435Z,68.32
2019-03-20T01:34:51.436Z,68.01
2019-03-20T01:35:51.410Z,67.60
2019-03-20T01:36:51.406Z,67.80
2019-03-20T01:37:51.404Z,68.01
2019-03-20T01:38:51.376Z,68.53
2019-03-20T01:39:51.377Z,68.15
2019-03-20T01:40:51.356Z,67.73
2019-03-20T01:41:51.344Z,67.73
2019-03-20T01:42:51.333Z,67.42
2019-03-20T01:43:51.322Z,67.94
2019-03-20T01:44:51.322Z,67.94
2019-03-20T01:45:51.315Z,67.73
2019-03-20T01:46:51.296Z,67.52
2019-03-20T01:47:51.279Z,68.35
2019-03-20T01:48:51.272Z,68.90
2019-03-20T01:49:51.267Z,68.70
2019-03-20T01:50:51.246Z,68.59
2019-03-20T01:51:51.240Z,68.80
2019-03-20T01:52:51.225Z,69.11
2019-03-20T01:53:51.219Z,69.01
2019-03-20T01:54:51.223Z,69.01
2019-03-20T01:55:51.200Z,69.63
2019-03-20T01:56:51.182Z,69.21
2019-03-20T01:57:51.175Z,68.90
2019-03-20T01:58:51.165Z,68.90
2019-03-20T01:59:51.165Z,69.42
2019-03-20T02:00:51.141Z,69.42
2019-03-20T02:01:51.130Z,68.80
2019-03-20T02:02:51.120Z,69.63
2019-03-20T02:03:51.113Z,68.49
2019-03-20T02:04:51.112Z,68.38
2019-03-20T02:05:51.089Z,68.59
2019-03-20T02:06:51.078Z,68.90
2019-03-20T02:07:51.070Z,68.80
2019-03-20T02:08:51.059Z,68.18
2019-03-20T02:09:51.053Z,69.01
2019-03-20T02:10:51.036Z,68.49
2019-03-20T02:11:51.030Z,68.70
2019-03-20T02:12:51.016Z,68.59
2019-03-20T02:13:51.004Z,69.01
2019-03-20T02:14:51.003Z,69.53
2019-03-20T02:15:50.980Z,69.53
2019-03-20T02:16:50.969Z,69.32
2019-03-20T02:17:50.962Z,69.53
2019-03-20T02:19:02.115Z,68.59
2019-03-20T02:19:50.950Z,68.28
2019-03-20T02:20:50.927Z,68.90
2019-03-20T02:21:50.916Z,68.49
2019-03-20T02:22:50.912Z,68.70
2019-03-20T02:23:50.897Z,68.52
2019-03-20T02:24:50.896Z,69.11
2019-03-20T02:25:50.874Z,68.93
2019-03-20T02:26:50.864Z,68.90
2019-03-20T02:27:50.853Z,68.62
2019-03-20T02:28:50.845Z,68.73
2019-03-20T02:31:35.848Z,68.93
2019-03-20T02:31:59.588Z,68.83
2019-03-20T02:32:59.578Z,68.59
2019-03-20T02:33:59.568Z,68.73
2019-03-20T02:34:59.571Z,68.41
2019-03-20T02:35:59.553Z,68.83
2019-03-20T02:36:59.538Z,68.73
2019-03-20T02:37:59.523Z,68.62
2019-03-20T02:38:59.511Z,69.14
2019-03-20T02:39:59.514Z,68.62
2019-03-20T02:40:59.496Z,68.73
2019-03-20T02:41:59.483Z,68.62
2019-03-20T02:42:59.473Z,68.73
2019-03-20T02:43:59.462Z,68.52
2019-03-20T02:44:59.461Z,68.52
2019-03-20T02:45:59.436Z,68.62
2019-03-20T02:46:59.430Z,68.31
2019-03-20T02:47:59.421Z,68.73
2019-03-20T02:48:59.427Z,68.70
2019-03-20T02:49:59.397Z,69.04
2019-03-20T02:50:59.394Z,68.73
2019-03-20T02:51:59.377Z,68.83
2019-03-20T02:52:59.364Z,68.93
2019-03-20T02:53:59.354Z,69.04
2019-03-20T02:54:59.343Z,68.93
2019-03-20T02:55:59.344Z,68.62
2019-03-20T02:56:59.321Z,68.62
2019-03-20T02:57:59.318Z,68.73
2019-03-20T02:58:59.310Z,69.24
2019-03-20T02:59:59.293Z,69.76
2019-03-20T03:00:59.324Z,70.07
2019-03-20T03:01:59.270Z,69.76
2019-03-20T03:02:59.257Z,69.97
2019-03-20T03:03:59.249Z,70.07
2019-03-20T03:04:59.235Z,69.35
2019-03-20T03:06:06.566Z,69.45
2019-03-20T03:07:00.214Z,69.66
2019-03-20T03:07:59.204Z,70.18
2019-03-20T03:08:59.196Z,69.87
2019-03-20T03:09:59.184Z,69.45
2019-03-20T03:10:59.187Z,69.97
2019-03-20T03:11:59.160Z,69.35
2019-03-20T03:12:59.150Z,69.66
2019-03-20T03:13:59.141Z,69.35
2019-03-20T03:14:59.129Z,69.04
2019-03-20T03:15:59.129Z,69.66
2019-03-20T03:16:59.109Z,69.24
2019-03-20T03:17:59.096Z,70.07
2019-03-20T03:18:59.088Z,69.04
2019-03-20T03:19:59.075Z,69.56
2019-03-20T03:20:59.075Z,69.87
2019-03-20T03:21:59.059Z,69.14
2019-03-20T03:22:59.043Z,69.87
2019-03-20T03:23:59.033Z,69.87
2019-03-20T03:24:59.025Z,69.35
2019-03-20T03:25:59.026Z,69.35
2019-03-20T03:26:59.001Z,70.07
2019-03-20T03:27:58.991Z,69.45
2019-03-20T03:28:58.988Z,69.56
2019-03-20T03:29:58.970Z,69.56
2019-03-20T03:30:58.969Z,70.00
2019-03-20T03:31:58.947Z,70.21
2019-03-20T03:32:58.954Z,70.80
2019-03-20T03:33:58.930Z,71.25
2019-03-20T03:34:58.952Z,70.94
2019-03-20T03:35:58.922Z,70.94
2019-03-20T03:36:58.893Z,70.70
2019-03-20T03:37:58.889Z,70.70
2019-03-20T03:38:58.878Z,70.28
2019-03-20T03:39:58.862Z,70.80
2019-03-20T03:40:58.864Z,70.83
2019-03-20T03:41:58.847Z,70.59
2019-03-20T03:42:58.834Z,70.18
2019-03-20T03:43:58.821Z,70.94
2019-03-20T03:44:58.811Z,70.49
2019-03-20T03:45:58.811Z,70.52
2019-03-20T03:46:58.788Z,71.04
2019-03-20T03:47:58.781Z,71.11
2019-03-20T03:48:58.765Z,71.77
2019-03-20T03:49:58.757Z,71.42
2019-03-20T03:50:58.755Z,70.94
2019-03-20T03:51:58.733Z,71.53
2019-03-20T03:52:58.722Z,71.42
2019-03-20T03:53:58.715Z,71.04
2019-03-20T03:54:58.703Z,72.08
2019-03-20T03:55:58.709Z,72.18
2019-03-20T03:56:58.680Z,72.28
2019-03-20T03:57:58.671Z,71.56
2019-03-20T03:58:58.659Z,71.32
2019-03-20T03:59:58.651Z,71.87
2019-03-20T04:00:58.648Z,72.28
2019-03-20T04:01:58.628Z,72.28
2019-03-20T04:02:58.621Z,72.28
2019-03-20T04:03:58.607Z,72.08
2019-03-20T04:04:58.597Z,71.77
2019-03-20T04:05:58.594Z,71.97
2019-03-20T04:06:58.576Z,71.97
2019-03-20T04:07:58.563Z,72.08
2019-03-20T04:08:58.559Z,72.08
2019-03-20T04:09:58.553Z,72.22
2019-03-20T04:10:58.543Z,72.42
2019-03-20T04:11:58.522Z,72.53
2019-03-20T04:12:58.510Z,72.11
2019-03-20T04:13:58.499Z,72.32
2019-03-20T04:14:58.491Z,72.22
2019-03-20T04:15:58.496Z,72.32
2019-03-20T04:16:58.468Z,72.42
2019-03-20T04:17:58.461Z,72.32
2019-03-20T04:18:58.451Z,72.01
2019-03-20T04:19:58.438Z,72.04
2019-03-20T04:20:58.451Z,72.22
2019-03-20T04:21:58.415Z,72.35
2019-03-20T04:22:58.404Z,72.87
2019-03-20T04:23:58.395Z,72.87
2019-03-20T04:24:58.405Z,73.18
2019-03-20T04:25:58.370Z,73.28
2019-03-20T04:26:58.375Z,73.28
2019-03-20T04:27:58.350Z,72.66
2019-03-20T04:28:58.344Z,72.77
2019-03-20T04:29:58.382Z,72.66
2019-03-20T04:30:58.339Z,72.56
2019-03-20T04:31:58.321Z,72.45
2019-03-20T04:32:58.299Z,72.77
2019-03-20T04:33:58.291Z,72.77
2019-03-20T04:34:58.279Z,72.59
2019-03-20T04:35:58.269Z,72.59
2019-03-20T04:36:58.269Z,72.49
2019-03-20T04:37:58.274Z,72.45
2019-03-20T04:38:58.233Z,72.49
2019-03-20T04:39:58.222Z,72.77
2019-03-20T04:40:58.213Z,73.00
2019-03-20T04:41:58.221Z,72.69
2019-03-20T04:42:58.190Z,73.11
2019-03-20T04:43:58.181Z,72.90
2019-03-20T04:44:58.173Z,72.59
2019-03-20T04:45:58.162Z,72.49
2019-03-20T04:46:58.157Z,72.38
2019-03-20T04:47:58.137Z,73.00
2019-03-20T04:48:58.128Z,72.69
2019-03-20T04:49:58.115Z,72.69
2019-03-20T04:50:58.106Z,72.69
2019-03-20T04:51:58.107Z,72.80
2019-03-20T04:52:58.087Z,72.80
2019-03-20T04:53:58.073Z,72.90
2019-03-20T04:54:58.062Z,72.69
2019-03-20T04:55:58.053Z,73.00
2019-03-20T04:56:58.053Z,73.22
2019-03-20T04:57:58.032Z,73.63
2019-03-20T04:58:58.022Z,74.36
2019-03-20T04:59:58.009Z,74.57
2019-03-20T05:00:58.001Z,74.98
2019-03-20T05:01:58.000Z,74.46
2019-03-20T05:02:57.979Z,74.98
2019-03-20T05:03:57.968Z,74.98
2019-03-20T05:04:57.957Z,74.57
2019-03-20T05:05:57.945Z,74.46
2019-03-20T05:06:59.294Z,74.26
2019-03-20T05:07:57.925Z,73.94
2019-03-20T05:08:57.914Z,74.26
2019-03-20T05:09:57.904Z,74.15
2019-03-20T05:10:57.895Z,73.53
2019-03-20T05:11:57.900Z,73.32
2019-03-20T05:12:57.871Z,73.43
2019-03-20T05:13:57.861Z,73.84
2019-03-20T05:14:57.852Z,74.46
2019-03-20T05:15:57.841Z,74.46
2019-03-20T05:16:57.839Z,74.77
2019-03-20T05:17:57.822Z,74.57
2019-03-20T05:18:57.810Z,74.36
2019-03-20T05:19:57.801Z,74.36
2019-03-20T05:20:57.789Z,73.94
2019-03-20T05:21:57.802Z,73.94
2019-03-20T05:22:57.772Z,73.22
2019-03-20T05:23:57.755Z,73.53
2019-03-20T05:24:57.751Z,73.32
2019-03-20T05:25:57.740Z,73.22
2019-03-20T05:26:57.723Z,73.22
2019-03-20T05:27:57.731Z,73.32
2019-03-20T05:28:57.703Z,73.49
2019-03-20T05:29:57.691Z,73.80
2019-03-20T05:30:57.681Z,74.36
2019-03-20T05:31:57.670Z,73.53
2019-03-20T05:32:57.668Z,74.36
2019-03-20T05:33:57.650Z,74.22
2019-03-20T05:34:57.637Z,74.32
2019-03-20T05:35:57.630Z,73.80
2019-03-20T05:37:10.643Z,73.80
2019-03-20T05:37:57.607Z,73.70
2019-03-20T05:38:57.599Z,73.60
2019-03-20T05:39:57.591Z,73.91
2019-03-20T05:40:57.576Z,73.80
2019-03-20T05:41:57.562Z,73.60
2019-03-20T05:42:57.562Z,73.39
2019-03-20T05:43:57.545Z,73.49
2019-03-20T05:44:57.530Z,73.77
2019-03-20T05:45:57.522Z,73.36
2019-03-20T05:46:57.523Z,73.36
2019-03-20T05:47:57.510Z,73.77
2019-03-20T05:48:57.490Z,73.36
2019-03-20T05:49:57.479Z,73.05
2019-03-20T05:50:57.470Z,72.80
2019-03-20T05:51:57.464Z,72.80
2019-03-20T05:52:57.458Z,72.39
2019-03-20T05:53:57.442Z,72.80
2019-03-20T05:54:57.426Z,72.18
2019-03-20T05:55:57.415Z,71.66
2019-03-20T05:56:57.404Z,71.53
2019-03-20T05:57:57.401Z,71.56
2019-03-20T05:58:57.392Z,71.53
2019-03-20T05:59:57.373Z,71.45
2019-03-20T06:00:57.362Z,70.90
2019-03-20T06:01:57.350Z,70.90
2019-03-20T06:02:57.353Z,71.42
2019-03-20T06:03:57.329Z,71.42
2019-03-20T06:04:57.324Z,71.53
2019-03-20T06:05:57.309Z,71.84
2019-03-20T06:06:57.295Z,71.59
2019-03-20T06:07:57.303Z,71.80
2019-03-20T06:08:57.275Z,71.39
2019-03-20T06:09:57.269Z,71.18
2019-03-20T06:10:57.254Z,70.46
2019-03-20T06:11:57.243Z,70.01
2019-03-20T06:12:57.246Z,69.70
2019-03-20T06:13:57.222Z,69.29
2019-03-20T06:14:57.214Z,69.49
2019-03-20T06:15:57.202Z,69.56
2019-03-20T06:16:57.193Z,70.08
2019-03-20T06:17:57.192Z,70.18
2019-03-20T06:18:57.168Z,70.15
2019-03-20T06:19:57.159Z,70.36
2019-03-20T06:20:57.156Z,69.53
2019-03-20T06:21:57.138Z,69.92
2019-03-20T06:22:57.136Z,69.43
2019-03-20T06:23:57.117Z,69.19
2019-03-20T06:24:57.109Z,68.98
2019-03-20T06:25:57.098Z,68.43
2019-03-20T06:26:57.084Z,68.33
2019-03-20T06:27:57.084Z,67.91
2019-03-20T06:28:57.064Z,67.68
2019-03-20T06:29:57.051Z,67.47
2019-03-20T06:30:57.041Z,66.03
2019-03-20T06:31:57.030Z,65.82
2019-03-20T06:32:57.053Z,65.72
2019-03-20T06:33:57.013Z,66.20
2019-03-20T06:34:57.003Z,65.79
2019-03-20T06:35:56.992Z,65.27
2019-03-20T06:36:56.978Z,65.34
2019-03-20T06:37:56.967Z,65.55
2019-03-20T06:38:56.972Z,65.45
2019-03-20T06:39:56.945Z,65.21
2019-03-20T06:40:56.940Z,65.42
2019-03-20T06:41:56.924Z,63.77
2019-03-20T06:42:56.914Z,63.97
2019-03-20T06:43:56.918Z,64.04
2019-03-20T06:44:56.895Z,64.67
2019-03-20T06:45:56.882Z,63.71
2019-03-20T06:46:56.884Z,63.71
2019-03-20T06:47:56.864Z,63.19
2019-03-20T06:48:56.861Z,62.88
2019-03-20T06:49:56.838Z,63.06
2019-03-20T06:50:56.828Z,63.19
2019-03-20T06:51:56.820Z,62.34
2019-03-20T06:52:56.807Z,62.24
2019-03-20T06:53:56.805Z,62.75
2019-03-20T06:54:56.783Z,61.90
2019-03-20T06:55:56.782Z,61.90
2019-03-20T06:56:56.765Z,61.46
2019-03-20T06:57:56.752Z,61.35
2019-03-20T06:58:56.751Z,61.77
2019-03-20T06:59:56.732Z,60.63
2019-03-20T07:00:56.722Z,60.09
2019-03-20T07:01:56.712Z,60.09
2019-03-20T07:02:56.704Z,59.55
2019-03-20T07:03:56.749Z,59.24
2019-03-20T07:04:56.677Z,59.03
2019-03-20T07:05:56.681Z,59.55
2019-03-20T07:06:57.379Z,60.03
2019-03-20T07:07:56.650Z,60.35
2019-03-20T07:08:56.645Z,59.83
2019-03-20T07:09:56.624Z,59.70
2019-03-20T07:10:56.613Z,57.95
2019-03-20T07:11:56.601Z,57.51
2019-03-20T07:12:56.595Z,58.23
2019-03-20T07:13:56.593Z,57.00
2019-03-20T07:14:56.574Z,57.82
2019-03-20T07:15:56.559Z,58.41
2019-03-20T07:16:56.550Z,56.87
2019-03-20T07:17:56.541Z,56.56
2019-03-20T07:18:56.536Z,56.95
2019-03-20T07:19:56.518Z,56.00
2019-03-20T07:20:56.504Z,54.97
2019-03-20T07:21:56.495Z,54.05
2019-03-20T07:22:56.487Z,55.05
2019-03-20T07:23:56.482Z,53.28
2019-03-20T07:24:56.462Z,53.49
2019-03-20T07:25:56.452Z,54.61
2019-03-20T07:26:56.443Z,53.16
2019-03-20T07:27:56.439Z,53.05
2019-03-20T07:28:56.429Z,53.13
2019-03-20T07:29:57.384Z,52.19
2019-03-20T07:30:56.479Z,52.19
2019-03-20T07:31:56.387Z,51.95
2019-03-20T07:32:56.379Z,51.32
2019-03-20T07:33:56.376Z,51.09
2019-03-20T07:34:56.353Z,49.00
2019-03-20T07:35:56.343Z,50.31
2019-03-20T07:36:56.334Z,48.02
2019-03-20T07:37:56.569Z,47.46
2019-03-20T07:38:56.327Z,44.77
2019-03-20T07:39:56.311Z,44.20
2019-03-20T07:40:56.290Z,44.46
2019-03-20T07:41:56.278Z,41.48
2019-03-20T07:42:56.278Z,40.61
2019-03-20T07:43:56.276Z,39.46
2019-03-20T07:44:56.249Z,38.84
2019-03-20T07:45:56.235Z,39.20
2019-03-20T07:46:56.242Z,37.55
2019-03-20T07:47:56.215Z,37.02
2019-03-20T07:48:56.216Z,36.81
2019-03-20T07:49:56.194Z,35.88
2019-03-20T07:50:56.184Z,34.86
2019-03-20T07:51:56.173Z,34.84
2019-03-20T07:52:56.160Z,34.63
2019-03-20T07:53:56.162Z,33.10
2019-03-20T07:54:56.141Z,34.29
2019-03-20T07:55:56.129Z,33.57
2019-03-20T07:56:56.121Z,32.75
2019-03-20T07:57:56.108Z,32.84
2019-03-20T07:58:56.129Z,32.52
2019-03-20T07:59:56.091Z,31.48
2019-03-20T08:00:56.078Z,29.86
2019-03-20T08:01:56.067Z,30.16
2019-03-20T08:02:56.060Z,30.65
2019-03-20T08:03:56.056Z,28.94
2019-03-20T08:04:56.048Z,29.43
2019-03-20T08:05:56.028Z,29.71
2019-03-20T08:06:56.016Z,29.49
2019-03-20T08:08:06.436Z,29.38
2019-03-20T08:08:56.995Z,28.47
2019-03-20T08:09:56.420Z,27.66
2019-03-20T08:10:55.975Z,29.05
2019-03-20T08:11:55.965Z,27.94
2019-03-20T08:12:55.961Z,27.93
2019-03-20T08:13:55.943Z,27.92
2019-03-20T08:14:55.947Z,26.50
2019-03-20T08:15:55.927Z,25.68
2019-03-20T08:16:55.915Z,26.88
2019-03-20T08:17:55.904Z,25.48
2019-03-20T08:18:55.894Z,25.77
2019-03-20T08:19:55.933Z,25.76
2019-03-20T08:20:55.873Z,25.65
2019-03-20T08:21:55.862Z,25.15
2019-03-20T08:22:55.852Z,24.26
2019-03-20T08:23:55.842Z,25.04
2019-03-20T08:24:55.934Z,24.16
2019-03-20T08:25:55.821Z,24.65
2019-03-20T08:26:55.814Z,24.87
2019-03-20T08:27:55.804Z,25.29
2019-03-20T08:28:55.796Z,25.71
2019-03-20T08:29:55.793Z,27.73
2019-03-20T08:30:55.818Z,27.66
2019-03-20T08:31:55.765Z,28.07
2019-03-20T08:32:55.755Z,27.95
2019-03-20T08:33:55.818Z,26.73
2019-03-20T08:34:55.741Z,25.90
2019-03-20T08:35:55.738Z,23.98
2019-03-20T08:36:55.735Z,24.64
2019-03-20T08:37:55.716Z,23.13
2019-03-20T08:38:55.691Z,23.71
2019-03-20T08:39:55.690Z,22.71
2019-03-20T08:40:55.742Z,22.40
2019-03-20T08:41:55.698Z,21.10
2019-03-20T08:42:55.677Z,21.19
2019-03-20T08:43:55.648Z,20.60
2019-03-20T08:44:55.805Z,20.70
2019-03-20T08:45:56.421Z,22.38
2019-03-20T08:46:55.622Z,22.56
2019-03-20T08:47:55.624Z,21.27
2019-03-20T08:48:55.598Z,20.48
2019-03-20T08:49:55.593Z,20.97
2019-03-20T08:50:55.614Z,21.05
2019-03-20T08:51:55.562Z,20.76
2019-03-20T08:52:55.552Z,20.95
2019-03-20T08:53:56.359Z,20.65
2019-03-20T08:54:55.592Z,20.25
2019-03-20T08:55:55.524Z,20.04
2019-03-20T08:56:55.512Z,20.06
2019-03-20T08:57:55.503Z,19.66
2019-03-20T08:58:55.509Z,19.56
2019-03-20T08:59:55.500Z,19.35
2019-03-20T09:00:55.481Z,20.14
2019-03-20T09:01:55.470Z,19.15
2019-03-20T09:02:55.458Z,19.65
2019-03-20T09:03:55.451Z,19.95
2019-03-20T09:04:55.446Z,19.15
2019-03-20T09:05:55.428Z,20.23
2019-03-20T09:06:55.415Z,18.74
2019-03-20T09:07:55.407Z,19.93
2019-03-20T09:08:55.396Z,19.73
2019-03-20T09:09:55.396Z,19.23
2019-03-20T09:10:55.376Z,19.24
2019-03-20T09:11:55.375Z,19.44
2019-03-20T09:12:55.356Z,18.75
2019-03-20T09:13:55.351Z,19.24
2019-03-20T09:14:55.520Z,19.74
2019-03-20T09:15:55.329Z,18.65
2019-03-20T09:16:55.320Z,19.23
2019-03-20T09:17:55.310Z,18.83
2019-03-20T09:18:55.300Z,18.23
2019-03-20T09:19:55.294Z,19.40
2019-03-20T09:20:55.285Z,18.41
2019-03-20T09:21:55.268Z,19.00
2019-03-20T09:22:55.265Z,17.82
2019-03-20T09:23:55.247Z,18.42
2019-03-20T09:24:55.236Z,19.40
2019-03-20T09:25:55.238Z,18.12
2019-03-20T09:26:55.218Z,18.11
2019-03-20T09:27:55.206Z,18.39
2019-03-20T09:28:55.197Z,18.98
2019-03-20T09:29:55.192Z,17.90
2019-03-20T09:30:55.185Z,17.61
2019-03-20T09:31:55.168Z,18.40
2019-03-20T09:32:55.161Z,18.01
2019-03-20T09:33:55.283Z,19.19
2019-03-20T09:34:55.150Z,19.40
2019-03-20T09:35:55.143Z,18.61
2019-03-20T09:36:55.117Z,19.10
2019-03-20T09:37:55.113Z,19.10
2019-03-20T09:38:55.096Z,19.01
2019-03-20T09:39:55.088Z,19.01
2019-03-20T09:40:55.086Z,18.91
2019-03-20T09:41:55.070Z,19.11
2019-03-20T09:42:55.060Z,20.29
2019-03-20T09:43:55.051Z,19.12
2019-03-20T09:44:55.032Z,19.02
2019-03-20T09:45:56.926Z,20.01
2019-03-20T09:46:55.019Z,19.72
2019-03-20T09:47:55.007Z,20.70
2019-03-20T09:48:54.994Z,18.93
2019-03-20T09:49:54.983Z,19.23
2019-03-20T09:50:54.987Z,18.84
2019-03-20T09:51:54.962Z,19.45
2019-03-20T09:52:54.954Z,19.74
2019-03-20T09:53:54.947Z,20.84
2019-03-20T09:54:54.957Z,20.27
2019-03-20T09:55:54.930Z,21.16
2019-03-20T09:56:54.910Z,20.68
2019-03-20T09:57:54.902Z,21.08
2019-03-20T09:58:54.895Z,21.18
2019-03-20T09:59:54.880Z,21.19
2019-03-20T10:00:54.880Z,20.79
2019-03-20T10:01:54.869Z,20.61
2019-03-20T10:02:54.851Z,20.81
2019-03-20T10:03:54.841Z,22.72
2019-03-20T10:04:54.833Z,23.23
2019-03-20T10:05:54.829Z,23.54
2019-03-20T10:06:54.812Z,24.74
2019-03-20T10:07:54.804Z,23.16
2019-03-20T10:08:54.785Z,24.18
2019-03-20T10:09:54.778Z,24.59
2019-03-20T10:10:54.825Z,25.01
2019-03-20T10:11:54.757Z,25.62
2019-03-20T10:12:54.746Z,25.74
2019-03-20T10:13:54.733Z,26.86
2019-03-20T10:14:54.721Z,26.97
2019-03-20T10:15:54.712Z,26.50
2019-03-20T10:16:54.715Z,28.41
2019-03-20T10:17:54.697Z,28.12
2019-03-20T10:18:54.680Z,28.15
2019-03-20T10:19:54.671Z,29.35
2019-03-20T10:20:54.678Z,29.65
2019-03-20T10:21:54.668Z,29.36
2019-03-20T10:22:54.638Z,28.88
2019-03-20T10:23:54.630Z,29.28
2019-03-20T10:24:54.615Z,29.60
2019-03-20T10:25:54.605Z,29.39
2019-03-20T10:26:54.603Z,29.99
2019-03-20T10:27:54.583Z,30.19
2019-03-20T10:28:54.575Z,30.90
2019-03-20T10:29:54.562Z,29.58
2019-03-20T10:30:54.550Z,29.60
2019-03-20T10:31:54.551Z,29.88
2019-03-20T10:32:54.528Z,29.29
2019-03-20T10:33:54.524Z,30.81
2019-03-20T10:34:54.508Z,31.01
2019-03-20T10:35:54.499Z,30.73
2019-03-20T10:36:54.500Z,30.52
2019-03-20T10:37:54.479Z,30.24
2019-03-20T10:39:05.774Z,30.84
2019-03-20T10:39:55.466Z,30.44
2019-03-20T10:40:54.444Z,31.34
2019-03-20T10:41:54.457Z,30.76
2019-03-20T10:42:54.426Z,30.85
2019-03-20T10:43:54.411Z,31.17
2019-03-20T10:44:54.406Z,31.98
2019-03-20T10:45:54.395Z,31.07
2019-03-20T10:46:54.388Z,32.18
2019-03-20T10:47:54.377Z,31.98
2019-03-20T10:48:56.354Z,32.28
2019-03-20T10:49:54.348Z,32.28
2019-03-20T10:50:54.343Z,32.39
2019-03-20T10:51:54.342Z,33.69
2019-03-20T10:52:54.322Z,33.08
2019-03-20T10:53:54.305Z,33.69
2019-03-20T10:54:54.295Z,32.98
2019-03-20T10:55:54.286Z,31.68
2019-03-20T10:56:54.284Z,32.68
2019-03-20T10:57:54.264Z,31.17
2019-03-20T10:58:54.262Z,32.38
2019-03-20T10:59:54.241Z,32.39
2019-03-20T11:00:54.232Z,32.59
2019-03-20T11:01:54.230Z,32.90
2019-03-20T11:02:54.219Z,32.70
2019-03-20T11:03:54.200Z,31.89
2019-03-20T11:04:54.196Z,32.70
2019-03-20T11:05:54.179Z,34.20
2019-03-20T11:06:54.189Z,33.31
2019-03-20T11:07:54.156Z,32.91
2019-03-20T11:08:54.148Z,33.82
2019-03-20T11:09:54.134Z,33.22
2019-03-20T11:10:54.125Z,35.13
2019-03-20T11:11:54.125Z,34.83
2019-03-20T11:12:54.108Z,33.62
2019-03-20T11:13:54.091Z,33.64
2019-03-20T11:14:54.081Z,34.22
2019-03-20T11:15:54.068Z,34.44
2019-03-20T11:16:54.068Z,34.45
2019-03-20T11:17:54.046Z,33.55
2019-03-20T11:18:54.057Z,33.25
2019-03-20T11:19:56.220Z,33.76
2019-03-20T11:20:54.015Z,34.17
2019-03-20T11:21:54.015Z,34.88
2019-03-20T11:22:53.993Z,34.77
2019-03-20T11:23:53.983Z,35.17
2019-03-20T11:24:53.973Z,34.97
2019-03-20T11:25:53.960Z,34.88
2019-03-20T11:26:53.952Z,34.97
2019-03-20T11:27:53.953Z,35.58
2019-03-20T11:28:53.939Z,35.17
2019-03-20T11:29:53.919Z,34.99
2019-03-20T11:30:53.909Z,36.10
2019-03-20T11:31:53.895Z,36.12
2019-03-20T11:32:53.896Z,36.62
2019-03-20T11:33:53.879Z,37.33
2019-03-20T11:34:53.865Z,36.30
2019-03-20T11:35:53.852Z,35.60
2019-03-20T11:36:53.843Z,35.99
2019-03-20T11:37:53.844Z,36.39
2019-03-20T11:38:53.820Z,35.58
2019-03-20T11:39:53.810Z,36.08
2019-03-20T11:40:53.799Z,36.00
2019-03-20T11:41:53.841Z,36.29
2019-03-20T11:42:53.793Z,35.88
2019-03-20T11:43:53.765Z,35.57
2019-03-20T11:44:53.756Z,34.86
2019-03-20T11:45:53.747Z,35.86
2019-03-20T11:46:53.733Z,35.88
2019-03-20T11:47:53.734Z,35.80
2019-03-20T11:48:53.713Z,35.92
2019-03-20T11:49:53.703Z,35.61
2019-03-20T11:50:53.697Z,35.61
2019-03-20T11:51:53.687Z,35.61
2019-03-20T11:52:53.684Z,35.60
2019-03-20T11:53:53.676Z,35.68
2019-03-20T11:54:53.666Z,34.57
2019-03-20T11:55:53.640Z,34.47
2019-03-20T11:56:53.626Z,35.90
2019-03-20T11:57:53.681Z,35.19
2019-03-20T11:58:53.627Z,35.70
2019-03-20T11:59:53.597Z,35.90
2019-03-20T12:00:53.601Z,36.40
2019-03-20T12:01:53.578Z,36.20
2019-03-20T12:02:53.574Z,36.22
2019-03-20T12:03:53.550Z,35.72
2019-03-20T12:04:54.080Z,36.12
2019-03-20T12:05:53.531Z,36.84
2019-03-20T12:06:53.522Z,37.55
2019-03-20T12:07:53.518Z,36.94
2019-03-20T12:08:53.496Z,37.45
2019-03-20T12:09:53.486Z,36.34
2019-03-20T12:10:53.479Z,37.06
2019-03-20T12:11:53.466Z,37.68
2019-03-20T12:12:53.503Z,36.96
2019-03-20T12:13:53.441Z,37.59
2019-03-20T12:14:53.430Z,38.68
2019-03-20T12:15:53.427Z,38.70
2019-03-20T12:16:53.411Z,38.07
2019-03-20T12:17:53.409Z,38.39
2019-03-20T12:18:53.389Z,38.28
2019-03-20T12:19:53.378Z,38.07
2019-03-20T12:20:53.368Z,37.65
2019-03-20T12:21:53.361Z,37.04
2019-03-20T12:22:53.356Z,37.24
2019-03-20T12:23:53.335Z,37.66
2019-03-20T12:24:53.323Z,37.46
2019-03-20T12:25:53.320Z,37.66
2019-03-20T12:26:53.303Z,38.57
2019-03-20T12:27:53.304Z,37.68
2019-03-20T12:28:53.286Z,37.99
2019-03-20T12:29:53.270Z,38.80
2019-03-20T12:30:53.259Z,37.38
2019-03-20T12:31:53.250Z,37.59
2019-03-20T12:32:53.251Z,38.19
2019-03-20T12:33:53.252Z,38.29
2019-03-20T12:34:53.217Z,38.29
2019-03-20T12:35:53.209Z,37.59
2019-03-20T12:36:53.231Z,38.29
2019-03-20T12:37:53.222Z,38.39
2019-03-20T12:38:53.173Z,38.59
2019-03-20T12:39:53.694Z,37.89
2019-03-20T12:40:53.152Z,38.11
2019-03-20T12:41:53.151Z,38.31
2019-03-20T12:42:53.131Z,39.32
2019-03-20T12:43:53.132Z,38.49
2019-03-20T12:44:53.109Z,38.39
2019-03-20T12:45:53.098Z,38.09
2019-03-20T12:46:53.089Z,38.70
2019-03-20T12:47:53.076Z,38.48
2019-03-20T12:48:53.078Z,39.18
2019-03-20T12:49:53.062Z,39.28
2019-03-20T12:50:53.057Z,37.97
2019-03-20T12:51:53.036Z,38.17
2019-03-20T12:52:53.022Z,38.98
2019-03-20T12:53:53.051Z,38.88